Time;durP1;ratioP1;P1;durP2;ratioP2;P2;SDS_P1;SDS_P2;PMS_P1;PMS_P2;Temp;Humidity;BMP_temperature;BMP_pressure;BME280_temperature;BME280_humidity;BME280_pressure;Samples;Min_cycle;Max_cycle;Signal;HPM_P1;HPM_P2
2024/02/24 00:00:25;;;;;;;3.07;2.03;;;2.00;99.90;;;;;;6213903;23;20008;-79
2024/02/24 00:02:51;;;;;;;3.60;2.00;;;2.00;99.90;;;;;;6215838;23;20398;-79
2024/02/24 00:05:16;;;;;;;3.47;1.83;;;1.90;99.90;;;;;;6215605;23;20028;-79
2024/02/24 00:07:42;;;;;;;4.30;2.07;;;1.90;99.90;;;;;;6215980;23;20012;-79
2024/02/24 00:10:08;;;;;;;7.77;2.63;;;1.90;99.90;;;;;;6215873;23;20000;-79
2024/02/24 00:12:33;;;;;;;6.33;2.60;;;1.90;99.90;;;;;;6216029;23;20011;-79
2024/02/24 00:14:59;;;;;;;4.63;2.20;;;1.90;99.90;;;;;;6216161;23;20051;-79
2024/02/24 00:17:25;;;;;;;3.73;2.13;;;1.90;99.90;;;;;;6216681;23;20005;-79
2024/02/24 00:19:50;;;;;;;6.50;2.40;;;1.80;99.90;;;;;;6217301;23;20347;-80
2024/02/24 00:22:16;;;;;;;7.77;2.30;;;1.80;99.90;;;;;;6217897;23;20008;-79
2024/02/24 00:24:41;;;;;;;6.10;2.40;;;1.80;99.90;;;;;;6216897;23;20008;-79
2024/02/24 00:27:07;;;;;;;6.30;2.60;;;1.70;99.90;;;;;;6217842;23;20399;-79
2024/02/24 00:29:32;;;;;;;4.33;2.53;;;1.80;99.90;;;;;;6216892;23;20445;-79
2024/02/24 00:31:58;;;;;;;3.77;2.17;;;1.70;99.90;;;;;;6217025;23;20000;-79
2024/02/24 00:34:24;;;;;;;6.40;2.60;;;1.70;99.90;;;;;;6216855;23;20004;-79
2024/02/24 00:36:49;;;;;;;6.00;2.90;;;1.70;99.90;;;;;;6217899;23;20011;-79
2024/02/24 00:39:15;;;;;;;10.63;2.90;;;1.70;99.90;;;;;;6217778;23;20368;-79
2024/02/24 00:41:40;;;;;;;7.07;3.40;;;1.70;99.90;;;;;;6218088;23;20000;-79
2024/02/24 00:44:08;;;;;;;5.50;2.93;;;1.60;99.90;;;;;;6216488;23;20015;-79
2024/02/24 00:46:34;;;;;;;6.17;3.37;;;1.60;99.90;;;;;;6217807;23;20025;-79
2024/02/24 00:48:59;;;;;;;5.83;3.00;;;1.60;99.90;;;;;;6217638;23;20005;-79
2024/02/24 00:51:25;;;;;;;6.40;3.07;;;1.60;99.90;;;;;;6218118;23;20340;-79
2024/02/24 00:53:50;;;;;;;5.60;3.30;;;1.60;99.90;;;;;;6217328;23;20086;-79
2024/02/24 00:56:16;;;;;;;7.40;3.53;;;1.50;99.90;;;;;;6217050;23;20001;-79
2024/02/24 00:58:41;;;;;;;7.03;3.40;;;1.50;99.90;;;;;;6216677;23;20004;-79
2024/02/24 01:01:07;;;;;;;5.43;3.20;;;1.50;99.90;;;;;;6217233;23;20008;-79
2024/02/24 01:03:32;;;;;;;10.13;3.03;;;1.50;99.90;;;;;;6216554;23;20012;-79
2024/02/24 01:05:58;;;;;;;6.93;3.10;;;1.50;99.90;;;;;;6217075;23;20004;-79
2024/02/24 01:08:23;;;;;;;7.70;3.07;;;1.50;99.90;;;;;;6217166;23;19997;-79
2024/02/24 01:10:49;;;;;;;6.27;3.43;;;1.40;99.90;;;;;;6217183;23;20073;-79
2024/02/24 01:13:14;;;;;;;5.57;3.10;;;1.40;99.90;;;;;;6216877;23;20005;-79
2024/02/24 01:15:40;;;;;;;5.97;2.73;;;1.40;99.90;;;;;;6215714;23;20012;-79
2024/02/24 01:18:05;;;;;;;5.60;3.03;;;1.30;99.90;;;;;;6217313;23;19996;-79
2024/02/24 01:20:31;;;;;;;6.43;3.23;;;1.30;99.90;;;;;;6217389;23;20005;-79
2024/02/24 01:22:59;;;;;;;6.07;2.80;;;1.30;99.90;;;;;;6217818;23;20015;-79
2024/02/24 01:25:25;;;;;;;5.27;3.00;;;1.30;99.90;;;;;;6216088;23;19997;-79
2024/02/24 01:27:50;;;;;;;4.87;3.07;;;1.30;99.90;;;;;;6216672;23;20004;-79
2024/02/24 01:30:16;;;;;;;10.20;3.47;;;1.20;99.90;;;;;;6217140;23;20376;-79
2024/02/24 01:32:42;;;;;;;4.27;2.60;;;1.20;99.90;;;;;;6217020;23;20000;-79
2024/02/24 01:35:08;;;;;;;4.87;2.70;;;1.20;99.90;;;;;;6216737;23;20020;-79
2024/02/24 01:37:34;;;;;;;4.53;2.60;;;1.20;99.90;;;;;;6217370;23;20045;-79
2024/02/24 01:40:00;;;;;;;5.87;2.40;;;1.20;99.90;;;;;;6217426;23;20004;-79
2024/02/24 01:42:25;;;;;;;3.70;2.20;;;1.10;99.90;;;;;;6216176;23;20009;-79
2024/02/24 01:44:51;;;;;;;4.77;3.00;;;1.10;99.90;;;;;;6216207;23;20004;-79
2024/02/24 01:47:18;;;;;;;5.30;2.67;;;1.10;99.90;;;;;;6216676;23;20466;-79
2024/02/24 01:49:45;;;;;;;7.90;2.20;;;1.10;99.90;;;;;;6216571;23;20001;-79
2024/02/24 01:52:11;;;;;;;6.50;2.30;;;1.10;99.90;;;;;;6217054;23;20343;-79
2024/02/24 01:54:37;;;;;;;6.03;2.40;;;1.10;99.90;;;;;;6215892;23;20012;-79
2024/02/24 01:57:04;;;;;;;4.47;2.47;;;1.10;99.90;;;;;;6216573;23;20013;-79
2024/02/24 01:59:31;;;;;;;4.40;2.40;;;1.10;99.90;;;;;;6216062;23;20016;-79
2024/02/24 02:01:57;;;;;;;4.37;2.73;;;1.00;99.90;;;;;;6215775;23;20008;-79
2024/02/24 02:04:22;;;;;;;4.97;2.70;;;1.00;99.90;;;;;;6215715;23;20055;-79
2024/02/24 02:06:48;;;;;;;5.30;2.30;;;1.00;99.90;;;;;;6215394;23;20005;-79
2024/02/24 02:09:14;;;;;;;3.77;2.10;;;0.90;99.90;;;;;;6215460;23;20385;-79
2024/02/24 02:11:39;;;;;;;5.00;2.10;;;0.90;99.90;;;;;;6188637;23;20080;-79
2024/02/24 02:14:05;;;;;;;4.80;2.20;;;0.90;99.90;;;;;;6214726;23;20566;-79
2024/02/24 02:16:32;;;;;;;6.50;2.00;;;0.80;99.90;;;;;;6215106;23;20024;-79
2024/02/24 02:18:57;;;;;;;2.80;1.80;;;0.80;99.90;;;;;;6214853;23;20432;-79
2024/02/24 02:21:24;;;;;;;4.33;2.10;;;0.70;99.90;;;;;;6215869;23;20060;-79
2024/02/24 02:23:50;;;;;;;4.13;2.50;;;0.70;99.90;;;;;;6214388;23;20013;-79
2024/02/24 02:26:17;;;;;;;3.53;2.20;;;0.70;99.90;;;;;;6214181;23;20026;-79
2024/02/24 02:28:44;;;;;;;4.67;2.57;;;0.70;99.90;;;;;;6215002;23;20005;-79
2024/02/24 02:31:09;;;;;;;3.50;2.13;;;0.60;99.90;;;;;;6215092;23;20040;-79
2024/02/24 02:33:35;;;;;;;3.00;1.80;;;0.60;99.90;;;;;;6214573;23;20055;-79
2024/02/24 02:36:01;;;;;;;4.60;1.93;;;0.60;99.90;;;;;;6214067;23;20007;-79
2024/02/24 02:38:26;;;;;;;4.50;1.97;;;0.60;99.90;;;;;;6214283;23;20088;-79
2024/02/24 02:40:52;;;;;;;4.73;1.87;;;0.50;99.90;;;;;;6214682;23;19996;-79
2024/02/24 02:43:17;;;;;;;4.10;1.60;;;0.60;99.90;;;;;;6213925;23;20095;-79
2024/02/24 02:45:43;;;;;;;3.33;1.40;;;0.60;99.90;;;;;;6213981;23;20016;-79
2024/02/24 02:48:10;;;;;;;1.83;1.37;;;0.60;99.90;;;;;;6214519;23;20039;-79
2024/02/24 02:50:35;;;;;;;3.63;1.53;;;0.60;99.90;;;;;;6214541;23;20387;-79
2024/02/24 02:53:01;;;;;;;2.87;1.30;;;0.60;99.90;;;;;;6214255;23;20039;-79
2024/02/24 02:55:27;;;;;;;1.83;1.30;;;0.60;99.90;;;;;;6213492;23;20015;-79
2024/02/24 02:57:52;;;;;;;2.57;1.43;;;0.60;99.90;;;;;;6213839;23;20509;-79
2024/02/24 03:00:18;;;;;;;3.20;1.47;;;0.50;99.90;;;;;;6214244;23;20001;-79
2024/02/24 03:02:43;;;;;;;1.40;1.10;;;0.50;99.90;;;;;;6214182;23;20057;-79
2024/02/24 03:05:09;;;;;;;1.73;1.30;;;0.50;99.90;;;;;;6213893;23;20027;-79
2024/02/24 03:07:34;;;;;;;3.23;1.37;;;0.50;99.90;;;;;;6214308;23;20449;-79
2024/02/24 03:10:00;;;;;;;2.67;1.30;;;0.50;99.90;;;;;;6214116;23;20020;-79
2024/02/24 03:12:25;;;;;;;3.67;1.73;;;0.50;99.90;;;;;;6214224;23;20032;-79
2024/02/24 03:14:51;;;;;;;3.37;1.53;;;0.50;99.90;;;;;;6213465;23;20004;-79
2024/02/24 03:17:16;;;;;;;2.30;1.70;;;0.40;99.90;;;;;;6214511;23;20043;-79
2024/02/24 03:19:42;;;;;;;2.13;1.50;;;0.40;99.90;;;;;;6214564;23;20004;-79
2024/02/24 03:22:07;;;;;;;3.43;1.67;;;0.40;99.90;;;;;;6214580;23;20327;-79
2024/02/24 03:24:33;;;;;;;2.97;1.60;;;0.40;99.90;;;;;;6213687;23;20413;-79
2024/02/24 03:26:59;;;;;;;2.17;1.40;;;0.40;99.90;;;;;;6214265;23;20366;-79
2024/02/24 03:29:24;;;;;;;1.83;1.40;;;0.30;99.90;;;;;;6214101;23;20336;-79
2024/02/24 03:31:50;;;;;;;2.37;1.50;;;0.30;99.90;;;;;;6214596;23;20170;-79
2024/02/24 03:34:15;;;;;;;7.90;2.13;;;0.30;99.90;;;;;;6213430;23;20000;-79
2024/02/24 03:36:42;;;;;;;2.80;1.60;;;0.30;99.90;;;;;;6214232;23;20308;-79
2024/02/24 03:39:08;;;;;;;1.27;1.13;;;0.20;99.90;;;;;;6213734;23;20058;-79
2024/02/24 03:41:33;;;;;;;2.23;1.50;;;0.20;99.90;;;;;;6213973;23;20423;-79
2024/02/24 03:43:59;;;;;;;2.77;1.00;;;0.20;99.90;;;;;;6213328;23;20135;-79
2024/02/24 03:46:25;;;;;;;1.93;1.40;;;0.20;99.90;;;;;;6213639;23;20016;-79
2024/02/24 03:48:50;;;;;;;1.40;1.17;;;0.20;99.90;;;;;;6214944;23;20027;-79
2024/02/24 03:51:17;;;;;;;1.33;1.03;;;0.20;99.90;;;;;;6216368;23;20114;-79
2024/02/24 03:53:42;;;;;;;2.10;1.27;;;0.20;99.90;;;;;;6215821;23;19996;-79
2024/02/24 03:56:08;;;;;;;1.83;1.00;;;0.20;99.90;;;;;;6215529;23;20070;-79
2024/02/24 03:58:33;;;;;;;1.63;1.03;;;0.20;99.90;;;;;;6216052;23;20008;-79
2024/02/24 04:00:59;;;;;;;2.30;1.20;;;0.20;99.90;;;;;;6215908;23;19993;-79
2024/02/24 04:03:24;;;;;;;1.83;0.93;;;0.20;99.90;;;;;;6215898;23;20024;-79
2024/02/24 04:05:50;;;;;;;1.80;1.00;;;0.20;99.90;;;;;;6215766;23;20005;-79
2024/02/24 04:08:15;;;;;;;3.00;1.00;;;0.20;99.90;;;;;;6215986;23;20012;-79
2024/02/24 04:10:43;;;;;;;0.87;0.80;;;0.20;99.90;;;;;;6216351;23;20020;-79
2024/02/24 04:13:08;;;;;;;1.10;1.00;;;0.20;99.90;;;;;;6216036;23;20071;-79
2024/02/24 04:15:34;;;;;;;1.40;0.93;;;0.20;99.90;;;;;;6215307;23;20000;-79
2024/02/24 04:17:59;;;;;;;1.87;1.00;;;0.20;99.90;;;;;;6215892;23;20104;-79
2024/02/24 04:20:25;;;;;;;5.03;1.90;;;0.20;99.90;;;;;;6216159;23;20001;-79
2024/02/24 04:22:50;;;;;;;8.93;2.70;;;0.10;99.90;;;;;;6215096;23;20038;-79
2024/02/24 04:25:16;;;;;;;9.73;2.53;;;0.10;99.90;;;;;;6215705;23;20005;-79
2024/02/24 04:27:41;;;;;;;6.07;2.70;;;0.10;99.90;;;;;;6215529;23;20007;-79
2024/02/24 04:30:07;;;;;;;6.93;2.00;;;0.10;99.90;;;;;;6215809;23;20080;-79
2024/02/24 04:32:32;;;;;;;2.80;1.50;;;0.10;99.90;;;;;;6216089;23;20542;-79
2024/02/24 04:34:58;;;;;;;3.03;1.40;;;0.00;99.90;;;;;;6214687;23;20017;-79
2024/02/24 04:37:23;;;;;;;1.83;1.20;;;0.00;99.90;;;;;;6215683;23;20004;-78
2024/02/24 04:39:49;;;;;;;1.93;1.20;;;0.00;99.90;;;;;;6215617;23;20004;-79
2024/02/24 04:42:15;;;;;;;2.17;1.50;;;0.00;99.90;;;;;;6214893;23;20337;-79
2024/02/24 04:44:40;;;;;;;2.53;1.27;;;0.00;99.90;;;;;;6215128;23;20031;-79
2024/02/24 04:47:06;;;;;;;2.23;1.50;;;0.00;99.90;;;;;;6215340;23;20000;-79
2024/02/24 04:49:32;;;;;;;1.53;1.13;;;0.00;99.90;;;;;;6215054;23;20421;-79
2024/02/24 04:51:58;;;;;;;0.80;0.80;;;0.10;99.90;;;;;;6215322;23;20023;-79
2024/02/24 04:54:24;;;;;;;1.63;1.07;;;0.10;99.90;;;;;;6215039;23;20447;-79
2024/02/24 04:56:49;;;;;;;1.03;0.80;;;0.10;99.90;;;;;;6215413;23;20004;-79
2024/02/24 04:59:15;;;;;;;2.67;1.10;;;0.10;99.90;;;;;;6214529;23;19997;-79
2024/02/24 05:01:40;;;;;;;1.63;1.10;;;0.10;99.90;;;;;;6215171;23;20004;-79
2024/02/24 05:04:06;;;;;;;1.80;1.03;;;0.10;99.90;;;;;;6214459;23;20005;-79
2024/02/24 05:06:31;;;;;;;2.37;1.30;;;0.10;99.90;;;;;;6214451;23;20063;-78
2024/02/24 05:08:57;;;;;;;2.00;1.10;;;0.20;99.90;;;;;;6214840;23;20005;-79
2024/02/24 05:11:22;;;;;;;1.20;1.10;;;0.10;99.90;;;;;;6215052;23;20031;-79
2024/02/24 05:13:48;;;;;;;3.97;1.10;;;0.20;99.90;;;;;;6214720;23;20446;-79
2024/02/24 05:16:14;;;;;;;2.87;1.47;;;0.20;99.90;;;;;;6213732;23;20079;-79
2024/02/24 05:18:40;;;;;;;2.50;1.10;;;0.20;99.90;;;;;;6214523;23;20001;-79
2024/02/24 05:21:06;;;;;;;1.97;1.00;;;0.20;99.90;;;;;;6214972;23;20004;-79
2024/02/24 05:23:31;;;;;;;2.53;1.00;;;0.20;99.90;;;;;;6215028;23;20015;-79
2024/02/24 05:25:57;;;;;;;1.40;1.00;;;0.10;99.90;;;;;;6213714;23;20028;-79
2024/02/24 05:28:22;;;;;;;1.73;1.20;;;0.20;99.90;;;;;;6214830;23;20427;-79
2024/02/24 05:30:48;;;;;;;1.20;0.90;;;0.10;99.90;;;;;;6214511;23;20024;-79
2024/02/24 05:33:14;;;;;;;1.90;1.13;;;0.20;99.90;;;;;;6214949;23;20011;-78
2024/02/24 05:35:40;;;;;;;2.43;1.20;;;0.20;99.90;;;;;;6214113;23;20005;-79
2024/02/24 05:38:05;;;;;;;1.97;0.90;;;0.20;99.90;;;;;;6214324;23;20446;-79
2024/02/24 05:40:31;;;;;;;2.00;1.10;;;0.20;99.90;;;;;;6214408;23;20419;-79
2024/02/24 05:42:56;;;;;;;1.63;1.10;;;0.20;99.90;;;;;;6214628;23;20071;-79
2024/02/24 05:45:22;;;;;;;2.30;0.97;;;0.10;99.90;;;;;;6214094;23;19992;-79
2024/02/24 05:47:47;;;;;;;1.50;1.03;;;0.10;99.90;;;;;;6214686;23;19996;-79
2024/02/24 05:50:13;;;;;;;6.03;1.10;;;0.20;99.90;;;;;;6215047;23;19996;-79
2024/02/24 05:52:38;;;;;;;2.37;1.00;;;0.20;99.90;;;;;;6214398;23;20530;-78
2024/02/24 05:55:06;;;;;;;2.37;1.10;;;0.10;99.90;;;;;;6213518;23;20009;-79
2024/02/24 05:57:32;;;;;;;3.10;1.10;;;0.10;99.90;;;;;;6214277;23;20005;-79
2024/02/24 05:59:57;;;;;;;5.90;1.20;;;0.10;99.90;;;;;;6214467;23;20004;-79
2024/02/24 06:02:23;;;;;;;2.57;1.20;;;0.10;99.90;;;;;;6213647;23;19997;-79
2024/02/24 06:04:48;;;;;;;1.37;1.07;;;0.00;99.90;;;;;;6213616;23;20001;-79
2024/02/24 06:07:14;;;;;;;2.93;1.10;;;0.00;99.90;;;;;;6213761;23;20007;-79
2024/02/24 06:09:39;;;;;;;3.20;1.33;;;0.00;99.90;;;;;;6214274;23;20035;-79
2024/02/24 06:12:06;;;;;;;3.00;1.30;;;0.00;99.90;;;;;;6214754;23;20000;-79
2024/02/24 06:14:31;;;;;;;1.93;1.17;;;0.00;99.90;;;;;;6217176;23;20011;-81
2024/02/24 06:16:57;;;;;;;2.73;1.10;;;-0.10;99.90;;;;;;6217862;23;20040;-81
2024/02/24 06:19:22;;;;;;;3.40;1.10;;;-0.10;99.90;;;;;;6218564;23;20000;-80
2024/02/24 06:21:48;;;;;;;1.73;1.17;;;0.00;99.90;;;;;;6218413;23;20008;-80
2024/02/24 06:24:13;;;;;;;2.90;1.80;;;0.00;99.90;;;;;;6217668;23;20019;-80
2024/02/24 06:26:39;;;;;;;3.97;2.50;;;0.00;99.90;;;;;;6218338;23;20410;-80
2024/02/24 06:29:04;;;;;;;10.13;4.77;;;0.00;99.90;;;;;;6217357;23;20007;-80
2024/02/24 06:31:30;;;;;;;7.27;4.50;;;0.00;99.90;;;;;;6217913;23;19997;-80
2024/02/24 06:33:55;;;;;;;5.40;2.80;;;0.00;99.90;;;;;;6217920;23;20000;-80
2024/02/24 06:36:21;;;;;;;3.57;1.80;;;0.00;99.90;;;;;;6217094;23;19996;-80
2024/02/24 06:38:47;;;;;;;3.07;1.60;;;0.00;99.90;;;;;;6218465;23;20024;-81
2024/02/24 06:41:12;;;;;;;4.80;1.53;;;0.00;99.90;;;;;;6218138;23;19997;-80
2024/02/24 06:43:38;;;;;;;5.30;1.20;;;0.10;99.90;;;;;;6217598;23;20008;-80
2024/02/24 06:46:03;;;;;;;1.60;1.10;;;0.10;99.90;;;;;;6217647;23;19993;-81
2024/02/24 06:48:29;;;;;;;2.20;1.40;;;0.10;99.90;;;;;;6215524;23;20127;-78
2024/02/24 06:50:54;;;;;;;3.97;1.67;;;0.20;99.90;;;;;;6212945;23;20005;-78
2024/02/24 06:53:20;;;;;;;5.43;1.47;;;0.30;99.90;;;;;;6213345;23;20319;-78
2024/02/24 06:55:46;;;;;;;2.50;1.47;;;0.30;99.90;;;;;;6211424;23;20000;-78
2024/02/24 06:58:11;;;;;;;3.57;1.70;;;0.30;99.90;;;;;;6212731;23;20047;-79
2024/02/24 07:00:37;;;;;;;3.13;1.90;;;0.30;99.90;;;;;;6212790;23;20021;-78
2024/02/24 07:03:03;;;;;;;4.03;2.50;;;0.40;99.90;;;;;;6212681;23;20008;-78
2024/02/24 07:05:28;;;;;;;6.73;3.10;;;0.40;99.90;;;;;;6211317;23;20086;-78
2024/02/24 07:07:55;;;;;;;2.70;1.60;;;0.50;99.90;;;;;;6212928;23;20008;-78
2024/02/24 07:10:20;;;;;;;2.17;1.40;;;0.50;99.90;;;;;;6213061;23;20051;-78
2024/02/24 07:12:46;;;;;;;2.30;1.40;;;0.60;99.90;;;;;;6212787;23;19997;-78
2024/02/24 07:15:12;;;;;;;1.90;1.20;;;0.70;99.90;;;;;;6213129;23;20012;-78
2024/02/24 07:17:37;;;;;;;2.60;1.10;;;0.80;99.90;;;;;;6213246;23;20320;-78
2024/02/24 07:20:03;;;;;;;1.10;1.00;;;0.90;99.90;;;;;;6212014;23;20005;-78
2024/02/24 07:22:28;;;;;;;1.33;0.97;;;1.00;99.90;;;;;;6212080;23;20017;-78
2024/02/24 07:24:54;;;;;;;1.70;1.20;;;1.10;99.90;;;;;;6212814;23;20001;-78
2024/02/24 07:27:19;;;;;;;1.80;1.30;;;1.20;99.90;;;;;;6213202;23;20022;-78
2024/02/24 07:29:46;;;;;;;1.70;1.40;;;1.30;99.90;;;;;;6212657;23;20021;-78
2024/02/24 07:32:12;;;;;;;3.17;1.40;;;1.40;99.90;;;;;;6212951;23;20020;-78
2024/02/24 07:34:37;;;;;;;2.73;1.40;;;1.50;99.90;;;;;;6213217;23;20011;-78
2024/02/24 07:37:03;;;;;;;1.97;1.27;;;1.60;99.90;;;;;;6212958;23;20439;-78
2024/02/24 07:39:28;;;;;;;2.97;1.30;;;1.70;99.90;;;;;;6213103;23;20001;-78
2024/02/24 07:41:54;;;;;;;4.07;1.50;;;1.90;99.90;;;;;;6212612;23;20001;-78
2024/02/24 07:44:19;;;;;;;3.73;2.00;;;2.00;99.90;;;;;;6212594;23;20036;-79
2024/02/24 07:46:45;;;;;;;3.60;1.50;;;2.00;99.90;;;;;;6213515;23;20075;-79
2024/02/24 07:49:10;;;;;;;2.47;1.63;;;2.20;99.90;;;;;;6213622;23;20008;-78
2024/02/24 07:51:36;;;;;;;2.30;1.37;;;2.30;99.90;;;;;;6212724;23;20473;-78
2024/02/24 07:54:02;;;;;;;2.33;1.10;;;2.50;99.90;;;;;;6212620;23;20096;-78
2024/02/24 07:56:27;;;;;;;1.53;1.13;;;2.60;99.90;;;;;;6212706;23;20027;-76
2024/02/24 07:58:53;;;;;;;1.63;1.13;;;2.70;99.90;;;;;;6212686;23;19997;-75
2024/02/24 08:01:19;;;;;;;2.90;1.00;;;2.80;99.90;;;;;;6212811;23;20020;-75
2024/02/24 08:03:44;;;;;;;3.57;1.20;;;3.00;99.90;;;;;;6212505;23;20047;-75
2024/02/24 08:06:10;;;;;;;1.73;1.00;;;3.10;99.90;;;;;;6212686;23;19996;-75
2024/02/24 08:08:36;;;;;;;2.03;1.30;;;3.20;99.90;;;;;;6213151;23;20068;-74
2024/02/24 08:11:04;;;;;;;2.60;1.30;;;3.20;99.90;;;;;;6207101;23;19997;-74
2024/02/24 08:13:30;;;;;;;2.10;1.30;;;3.40;99.90;;;;;;6209553;23;20008;-74
2024/02/24 08:15:55;;;;;;;3.57;1.33;;;3.40;99.90;;;;;;6210495;23;20013;-74
2024/02/24 08:18:22;;;;;;;3.77;1.40;;;3.50;99.90;;;;;;6212807;23;20427;-74
2024/02/24 08:20:48;;;;;;;2.27;1.33;;;3.70;99.90;;;;;;6210817;23;20005;-73
2024/02/24 08:23:14;;;;;;;2.53;1.10;;;3.90;99.90;;;;;;6210745;23;20017;-73
2024/02/24 08:25:39;;;;;;;1.80;1.13;;;4.10;99.90;;;;;;6211595;23;20055;-73
2024/02/24 08:28:05;;;;;;;1.00;0.87;;;4.30;99.90;;;;;;6212855;23;19997;-78
2024/02/24 08:30:30;;;;;;;1.43;1.00;;;4.50;99.90;;;;;;6212029;23;20000;-72
2024/02/24 08:32:56;;;;;;;2.23;1.10;;;4.70;99.90;;;;;;6211739;23;20004;-73
2024/02/24 08:35:21;;;;;;;1.77;1.00;;;4.80;99.90;;;;;;6213401;23;20088;-73
2024/02/24 08:37:47;;;;;;;2.50;1.00;;;5.00;99.90;;;;;;6213801;23;20008;-73
2024/02/24 08:40:13;;;;;;;3.30;1.03;;;5.20;99.90;;;;;;6214545;23;20030;-73
2024/02/24 08:42:39;;;;;;;3.53;0.90;;;5.40;99.90;;;;;;6213639;23;20596;-74
2024/02/24 08:45:05;;;;;;;1.13;1.00;;;5.60;99.90;;;;;;6213801;23;20442;-73
2024/02/24 08:47:31;;;;;;;1.33;1.00;;;5.80;99.90;;;;;;6213820;23;20378;-73
2024/02/24 08:49:56;;;;;;;4.70;1.10;;;5.90;99.90;;;;;;6214235;23;20076;-73
2024/02/24 08:52:23;;;;;;;2.47;1.10;;;6.10;99.90;;;;;;6214107;23;20087;-73
2024/02/24 08:54:48;;;;;;;2.33;1.30;;;6.30;99.90;;;;;;6213290;23;20308;-73
2024/02/24 08:57:14;;;;;;;2.07;1.00;;;6.50;99.90;;;;;;6214177;23;20099;-73
2024/02/24 08:59:40;;;;;;;2.87;1.10;;;6.70;99.90;;;;;;6214014;23;20004;-73
2024/02/24 09:02:06;;;;;;;1.50;1.00;;;6.90;99.90;;;;;;6213964;23;20434;-73
2024/02/24 09:04:31;;;;;;;4.53;0.87;;;7.00;99.90;;;;;;6213535;23;20017;-73
2024/02/24 09:06:57;;;;;;;2.47;0.83;;;7.10;99.90;;;;;;6187138;23;20050;-73
2024/02/24 09:09:22;;;;;;;1.23;0.80;;;7.30;99.90;;;;;;6214484;23;20123;-74
2024/02/24 09:11:49;;;;;;;1.60;1.07;;;7.30;99.90;;;;;;6213584;23;20428;-73
2024/02/24 09:14:14;;;;;;;1.57;0.70;;;7.50;99.90;;;;;;6213553;23;20079;-73
2024/02/24 09:16:40;;;;;;;1.90;0.80;;;7.60;99.90;;;;;;6213454;23;20039;-73
2024/02/24 09:19:06;;;;;;;1.40;0.90;;;7.60;99.90;;;;;;6214142;23;20001;-73
2024/02/24 09:21:31;;;;;;;1.07;0.80;;;7.60;99.90;;;;;;6213636;23;20340;-73
2024/02/24 09:23:57;;;;;;;1.60;0.80;;;7.60;99.90;;;;;;6213593;23;20451;-73
2024/02/24 09:26:23;;;;;;;1.87;0.80;;;7.60;99.90;;;;;;6213669;23;20000;-73
2024/02/24 09:28:49;;;;;;;2.07;1.17;;;7.60;99.90;;;;;;6214045;23;20000;-73
2024/02/24 09:31:14;;;;;;;2.10;0.80;;;7.60;99.90;;;;;;6213927;23;20401;-73
2024/02/24 09:33:40;;;;;;;0.90;0.70;;;7.60;99.90;;;;;;6213474;23;20038;-74
2024/02/24 09:36:06;;;;;;;2.87;0.80;;;7.60;99.90;;;;;;6212426;23;20079;-73
2024/02/24 09:38:32;;;;;;;2.30;1.30;;;7.80;99.90;;;;;;6213872;23;20004;-73
2024/02/24 09:40:57;;;;;;;1.97;0.80;;;7.70;99.90;;;;;;6213111;23;20050;-73
2024/02/24 09:43:23;;;;;;;1.00;0.83;;;7.70;99.90;;;;;;6213649;23;20674;-73
2024/02/24 09:45:49;;;;;;;1.33;0.80;;;7.70;99.90;;;;;;6212122;23;20008;-73
2024/02/24 09:48:16;;;;;;;2.80;0.90;;;7.80;99.90;;;;;;6213718;23;20074;-74
2024/02/24 09:50:41;;;;;;;1.70;0.90;;;7.90;99.90;;;;;;6213414;23;20011;-73
2024/02/24 09:53:08;;;;;;;2.20;1.00;;;8.00;99.90;;;;;;6213795;23;20028;-73
2024/02/24 09:55:34;;;;;;;1.30;0.80;;;8.00;99.90;;;;;;6212854;23;20007;-73
2024/02/24 09:58:00;;;;;;;1.33;0.90;;;8.10;99.90;;;;;;6213480;23;20055;-73
2024/02/24 10:00:27;;;;;;;3.20;0.90;;;8.10;99.90;;;;;;6213506;23;19997;-73
2024/02/24 10:02:52;;;;;;;2.20;1.10;;;8.20;99.90;;;;;;6213214;23;20062;-74
2024/02/24 10:05:18;;;;;;;1.53;0.80;;;8.40;99.90;;;;;;6213206;23;20080;-74
2024/02/24 10:07:47;;;;;;;2.20;1.10;;;8.50;99.90;;;;;;6212907;23;20359;-73
2024/02/24 10:10:16;;;;;;;1.47;0.90;;;8.50;99.90;;;;;;6213782;23;20005;-73
2024/02/24 10:12:58;;;;;;;0.83;0.80;;;8.50;99.90;;;;;;6213124;23;20408;-74
2024/02/24 10:15:25;;;;;;;1.40;0.90;;;8.60;99.90;;;;;;6212756;23;20064;-73
2024/02/24 10:17:54;;;;;;;0.87;0.70;;;8.60;99.90;;;;;;6212836;23;20012;-73
2024/02/24 10:20:20;;;;;;;1.33;1.00;;;8.70;99.90;;;;;;6213190;23;20028;-73
2024/02/24 10:22:45;;;;;;;1.30;0.93;;;8.60;99.90;;;;;;6213071;23;20005;-73
2024/02/24 10:25:11;;;;;;;1.57;0.83;;;8.60;99.90;;;;;;6212248;23;20036;-73
2024/02/24 10:27:36;;;;;;;1.80;0.90;;;8.50;99.90;;;;;;6213115;23;20036;-73
2024/02/24 10:30:04;;;;;;;1.63;1.00;;;8.50;99.90;;;;;;6213340;23;20312;-73
2024/02/24 10:32:32;;;;;;;2.80;1.37;;;8.60;99.90;;;;;;6213325;23;20374;-74
2024/02/24 10:34:58;;;;;;;2.77;1.20;;;8.60;99.90;;;;;;6212786;23;19997;-73
2024/02/24 10:37:24;;;;;;;1.67;1.10;;;8.70;99.90;;;;;;6213112;23;20005;-73
2024/02/24 10:39:50;;;;;;;1.53;0.93;;;8.70;99.90;;;;;;6213087;23;20000;-74
2024/02/24 10:42:16;;;;;;;2.30;0.97;;;8.70;99.90;;;;;;6213002;23;20000;-73
2024/02/24 10:44:43;;;;;;;1.67;0.90;;;8.70;99.90;;;;;;6212530;23;20004;-74
2024/02/24 10:47:08;;;;;;;1.60;1.00;;;8.60;99.90;;;;;;6213372;23;20004;-73
2024/02/24 10:49:34;;;;;;;2.07;0.87;;;8.60;99.90;;;;;;6213313;23;20576;-74
2024/02/24 10:52:00;;;;;;;1.27;0.80;;;8.60;99.90;;;;;;6213080;23;20001;-74
2024/02/24 10:54:31;;;;;;;1.70;0.93;;;8.50;99.90;;;;;;6212565;23;20055;-74
2024/02/24 10:56:59;;;;;;;3.90;1.00;;;8.60;99.90;;;;;;6212821;23;20004;-73
2024/02/24 10:59:29;;;;;;;3.40;0.90;;;8.60;99.90;;;;;;6212821;23;20606;-73
2024/02/24 11:01:59;;;;;;;1.40;0.90;;;8.70;99.90;;;;;;6213489;23;20000;-74
2024/02/24 11:04:25;;;;;;;2.57;0.80;;;8.80;99.90;;;;;;6211971;23;20088;-73
2024/02/24 11:06:53;;;;;;;2.13;1.10;;;8.80;99.90;;;;;;6212323;23;20131;-74
2024/02/24 11:09:35;;;;;;;0.70;0.70;;;8.90;99.90;;;;;;6212832;23;20024;-74
2024/02/24 11:12:07;;;;;;;2.23;1.03;;;9.10;99.90;;;;;;6213396;23;20007;-73
2024/02/24 11:14:37;;;;;;;1.53;1.00;;;9.10;99.90;;;;;;6212677;23;20004;-74
2024/02/24 11:17:03;;;;;;;2.23;1.10;;;9.10;99.90;;;;;;6212495;23;20320;-74
2024/02/24 11:19:47;;;;;;;1.43;1.00;;;9.20;99.90;;;;;;6213776;23;19996;-74
2024/02/24 11:22:29;;;;;;;1.33;0.90;;;9.20;99.90;;;;;;6213650;23;20001;-74
2024/02/24 11:25:03;;;;;;;1.10;0.90;;;9.10;99.90;;;;;;6212795;23;20017;-74
2024/02/24 11:27:39;;;;;;;2.17;1.07;;;8.90;99.90;;;;;;6212504;23;20598;-74
2024/02/24 11:30:35;;;;;;;2.17;1.37;;;8.80;99.90;;;;;;6213764;23;19997;-74
2024/02/24 11:33:26;;;;;;;2.33;1.40;;;8.70;99.90;;;;;;6213425;23;20005;-74
2024/02/24 11:35:56;;;;;;;5.30;1.73;;;8.60;99.90;;;;;;6211917;23;20371;-73
2024/02/24 11:38:24;;;;;;;3.97;1.40;;;8.60;99.90;;;;;;6213092;23;20004;-74
2024/02/24 11:40:50;;;;;;;2.93;1.60;;;8.60;99.90;;;;;;6212370;23;20001;-74
2024/02/24 11:43:16;;;;;;;2.53;1.50;;;8.70;99.90;;;;;;6212528;23;20335;-74
2024/02/24 11:45:55;;;;;;;2.10;1.20;;;8.70;99.90;;;;;;6211276;23;20491;-73
2024/02/24 11:48:21;;;;;;;2.37;1.10;;;8.70;99.90;;;;;;6212538;23;20032;-73
2024/02/24 11:50:48;;;;;;;1.87;1.00;;;8.80;99.90;;;;;;6212536;23;20075;-76
2024/02/24 11:53:16;;;;;;;2.33;1.30;;;8.90;99.90;;;;;;6212743;23;20004;-74
2024/02/24 11:55:43;;;;;;;2.10;1.00;;;8.90;99.90;;;;;;6211541;23;20015;-74
2024/02/24 11:58:08;;;;;;;2.97;1.13;;;9.00;99.90;;;;;;6210644;23;20414;-74
2024/02/24 12:00:38;;;;;;;1.57;1.00;;;9.00;99.90;;;;;;6212623;23;20000;-73
2024/02/24 12:03:04;;;;;;;2.20;1.20;;;9.10;99.90;;;;;;6212789;23;20055;-74
2024/02/24 12:05:29;;;;;;;1.93;1.10;;;9.20;99.90;;;;;;6208359;23;20058;-74
2024/02/24 12:07:55;;;;;;;2.40;1.10;;;9.30;99.90;;;;;;6211621;23;20066;-74
2024/02/24 12:10:22;;;;;;;2.03;1.17;;;9.60;99.90;;;;;;6213634;23;20056;-73
2024/02/24 12:12:48;;;;;;;2.93;1.20;;;9.70;99.90;;;;;;6213956;23;20005;-74
2024/02/24 12:15:15;;;;;;;3.10;1.10;;;9.80;99.90;;;;;;6211888;23;20051;-74
2024/02/24 12:17:43;;;;;;;1.30;0.93;;;9.70;99.90;;;;;;6213181;23;20016;-74
2024/02/24 12:20:09;;;;;;;1.30;1.03;;;9.70;99.90;;;;;;6213923;23;20054;-74
2024/02/24 12:22:35;;;;;;;3.77;1.00;;;9.60;99.90;;;;;;6213953;23;20069;-74
2024/02/24 12:25:14;;;;;;;1.97;1.10;;;9.50;99.90;;;;;;6213845;23;20004;-73
2024/02/24 12:27:40;;;;;;;2.37;1.03;;;9.50;99.90;;;;;;6214311;23;20001;-74
2024/02/24 12:30:07;;;;;;;1.57;1.10;;;9.40;99.90;;;;;;6212719;23;20073;-74
2024/02/24 12:32:34;;;;;;;2.03;1.10;;;9.50;99.90;;;;;;6213502;23;20078;-73
2024/02/24 12:35:04;;;;;;;2.83;1.10;;;9.40;99.90;;;;;;6212779;23;20007;-69
2024/02/24 12:37:33;;;;;;;3.20;1.00;;;9.40;99.90;;;;;;6214371;23;20004;-73
2024/02/24 12:40:00;;;;;;;1.80;1.00;;;9.30;99.90;;;;;;6214224;23;20010;-78
2024/02/24 12:42:27;;;;;;;1.37;0.90;;;9.30;99.90;;;;;;6212580;23;20011;-78
2024/02/24 12:44:59;;;;;;;1.53;1.07;;;9.30;99.90;;;;;;6214023;23;20731;-78
2024/02/24 12:47:25;;;;;;;9.50;2.10;;;9.30;99.90;;;;;;6211009;23;20379;-79
2024/02/24 12:49:55;;;;;;;3.73;0.93;;;9.30;99.90;;;;;;6214621;23;20024;-78
2024/02/24 12:52:21;;;;;;;2.00;0.97;;;9.30;99.90;;;;;;6209756;23;20012;-78